YPPH Airport Information

Runway Information
Runway 03 Length 11299 ft width 148 ft
Elevation 67 ft Threshold 0 ft Heading 14
Runway 21 Length 11299 ft Width 148 ft
Elevation 43 ft Threshold 0 ft Heading 194
Runway 06 Length 7096 ft width 148 ft
Elevation 58 ft Threshold 0 ft Heading 59
Runway 24 Length 7096 ft Width 148 ft
Elevation 58 ft Threshold 0 ft Heading 239
Airport Frequencies
Type APP Name APP Frequency 123.6 MHZ
Type ATIS Name ATIS Frequency 123.8 MHZ
Type CLD Name CLNC DEL Frequency 118.55 MHZ
Type DEP Name DEP Frequency 118.7 MHZ
Type FSS Name PERTH RADA Frequency 135.25 MHZ
Type GND Name GND Frequency 121.7 MHZ
Type OPS Name RAAF AIR O Frequency 897.4 MHZ
Type TWR Name TWR Frequency 120.5 MHZ
Airport Navaids
Type NDB Name Caversham Frequency 329 KHZ
Type VOR-DME Name Perth Frequency 113700 KHZ
Type NDB Name Perth Frequency 272 KHZ
Type NDB Name Parkerville Frequency 352 KHZ
Airport Weather Information & NOTAM
ADDS - METARS form results

(1548 UTC 07 May 2021)
Data provider http://aviationweather.gov/metar/data/
 
METAR text: YPPH 071530Z AUTO 00000KT 9999 // BKN063 11/10 Q1022
Conditions at: YPPH (PERTH INTL/BELMO, AU) observed 1530 UTC 07 May 2021
Temperature: 11.0°C (52°F)
Dewpoint: 10.0°C (50°F) [RH = 94%]
Pressure (altimeter): 30.18 inches Hg (1022.0 mb)
Winds: calm
Visibility: 6 or more miles (10+ km)
Ceiling: 6300 feet AGL
Clouds: broken clouds at 6300 feet AGL
Weather: no significant weather observed at this time

METAR text: YPPH 071500Z 00000KT CAVOK 12/10 Q1022
Conditions at: YPPH (PERTH INTL/BELMO, AU) observed 1500 UTC 07 May 2021
Temperature: 12.0°C (54°F)
Dewpoint: 10.0°C (50°F) [RH = 88%]
Pressure (altimeter): 30.18 inches Hg (1022.0 mb)
Winds: calm
Visibility: 6 or more miles (10+ km)
Ceiling: ceiling and visibility are OK
Clouds: unknown
Weather: no significant weather observed at this time

Forecast for: YPPH (PERTH INTL/BELMO, AU)
Text: TAF YPPH 071411Z 0715/0818 16005KT CAVOK
Forecast period: 1500 UTC 07 May 2021 to 0300 UTC 08 May 2021
Forecast type: FROM: standard forecast or significant change
Winds: from the SSE (160 degrees) at 6 MPH (5 knots; 2.6 m/s)
Visibility: 6 or more miles (10+ km)
Ceiling: unknown
Clouds: missing
Weather: NSW  (no significant weather)
Text: FM080300 23009KT 9999 SCT040
Forecast period: 0300 to 1200 UTC 08 May 2021
Forecast type: FROM: standard forecast or significant change
Winds: from the SW (230 degrees) at 10 MPH (9 knots; 4.6 m/s)
Visibility: 6 or more miles (10+ km)
Ceiling: at least 12,000 feet AGL
Clouds: scattered clouds at 4000 feet AGL
Weather: no significant weather forecast for this period
Text: FM081200 16005KT 9999 SCT040
Forecast period: 1200 to 1800 UTC 08 May 2021
Forecast type: FROM: standard forecast or significant change
Winds: from the SSE (160 degrees) at 6 MPH (5 knots; 2.6 m/s)
Visibility: 6 or more miles (10+ km)
Ceiling: at least 12,000 feet AGL
Clouds: scattered clouds at 4000 feet AGL
Weather: no significant weather forecast for this period